Time;durP1;ratioP1;P1;durP2;ratioP2;P2;SDS_P1;SDS_P2;PMS_P1;PMS_P2;Temp;Humidity;BMP_temperature;BMP_pressure;BME280_temperature;BME280_humidity;BME280_pressure;Samples;Min_cycle;Max_cycle;Signal;HPM_P1;HPM_P2
2023/01/02 00:00:36;;;;;;;25.00;18.60;;;3.50;99.90;;;;;;5063850;28;20517;-74
2023/01/02 00:03:04;;;;;;;34.13;21.10;;;3.60;99.90;;;;;;5063361;28;20448;-74
2023/01/02 00:05:31;;;;;;;28.67;19.40;;;3.70;99.90;;;;;;5060158;28;20439;-74
2023/01/02 00:07:58;;;;;;;34.33;22.67;;;3.80;99.90;;;;;;5060817;28;20564;-74
2023/01/02 00:10:25;;;;;;;30.73;23.13;;;3.70;99.90;;;;;;5047849;28;20803;-74
2023/01/02 00:12:52;;;;;;;34.63;22.57;;;3.60;99.90;;;;;;5060107;28;20524;-76
2023/01/02 00:15:19;;;;;;;26.70;20.10;;;3.40;99.90;;;;;;5044685;28;20468;-76
2023/01/02 00:17:46;;;;;;;27.83;20.27;;;3.20;99.90;;;;;;5049053;28;20461;-74
2023/01/02 00:20:14;;;;;;;28.57;21.30;;;3.10;99.90;;;;;;5049118;28;20457;-75
2023/01/02 00:22:41;;;;;;;29.80;21.60;;;2.90;99.90;;;;;;5049573;28;20448;-75
2023/01/02 00:25:09;;;;;;;26.30;18.37;;;2.70;99.90;;;;;;5044555;28;20469;-75
2023/01/02 00:27:36;;;;;;;23.80;19.37;;;2.70;99.90;;;;;;5050353;28;20874;-75
2023/01/02 00:30:04;;;;;;;32.27;19.97;;;2.60;99.90;;;;;;5044530;28;20488;-75
2023/01/02 00:32:31;;;;;;;119.83;41.00;;;2.50;99.90;;;;;;5053964;28;20457;-75
2023/01/02 00:34:57;;;;;;;42.33;21.10;;;2.50;99.90;;;;;;5045046;28;20514;-74
2023/01/02 00:37:26;;;;;;;29.03;21.17;;;2.30;99.90;;;;;;5055358;28;20469;-75
2023/01/02 00:39:53;;;;;;;25.47;18.43;;;2.30;99.90;;;;;;5045803;28;20525;-75
2023/01/02 00:42:20;;;;;;;106.10;36.67;;;2.20;99.90;;;;;;5054825;28;20451;-75
2023/01/02 00:44:47;;;;;;;70.13;25.87;;;2.10;99.90;;;;;;5042584;28;20929;-75
2023/01/02 00:47:13;;;;;;;103.53;34.53;;;2.10;99.90;;;;;;5055768;28;20448;-75
2023/01/02 00:49:41;;;;;;;67.27;25.50;;;2.10;99.90;;;;;;5046186;28;20464;-74
2023/01/02 00:52:08;;;;;;;29.90;18.03;;;2.10;99.90;;;;;;5057950;28;20706;-74
2023/01/02 00:54:36;;;;;;;23.30;16.90;;;2.10;99.90;;;;;;5049290;28;20853;-75
2023/01/02 00:57:03;;;;;;;22.40;17.73;;;2.10;99.90;;;;;;5049037;28;20452;-75
2023/01/02 00:59:30;;;;;;;22.93;17.37;;;2.20;99.90;;;;;;5051495;28;20448;-75
2023/01/02 01:01:57;;;;;;;21.80;17.07;;;2.20;99.90;;;;;;5056302;28;20471;-75
2023/01/02 01:04:24;;;;;;;21.30;17.20;;;2.30;99.90;;;;;;5053574;28;20777;-74
2023/01/02 01:06:51;;;;;;;23.40;16.87;;;2.50;99.90;;;;;;5052530;28;20496;-75
2023/01/02 01:09:18;;;;;;;22.47;17.37;;;2.40;99.90;;;;;;5059134;28;20553;-75
2023/01/02 01:11:46;;;;;;;23.53;17.73;;;2.20;99.90;;;;;;5056613;28;20950;-74
2023/01/02 01:14:13;;;;;;;24.30;18.97;;;2.10;99.90;;;;;;5054869;28;20472;-74
2023/01/02 01:16:40;;;;;;;24.10;17.47;;;2.00;99.90;;;;;;5050374;28;20490;-74
2023/01/02 01:19:07;;;;;;;23.37;17.47;;;2.10;99.90;;;;;;5062453;28;20445;-74
2023/01/02 01:21:34;;;;;;;28.80;20.80;;;2.10;99.90;;;;;;5063751;28;20512;-74
2023/01/02 01:24:01;;;;;;;29.70;20.00;;;2.20;99.90;;;;;;5060478;28;20525;-74
2023/01/02 01:26:28;;;;;;;26.90;18.70;;;2.40;99.90;;;;;;5062695;28;20853;-74
2023/01/02 01:28:57;;;;;;;22.60;18.07;;;2.50;99.90;;;;;;5065703;28;20588;-74
2023/01/02 01:31:24;;;;;;;26.83;18.17;;;2.50;99.90;;;;;;5057903;28;20584;-74
2023/01/02 01:33:51;;;;;;;20.07;17.73;;;2.60;99.90;;;;;;5050580;28;20449;-74
2023/01/02 01:36:20;;;;;;;26.00;18.87;;;2.60;99.90;;;;;;5060074;28;20526;-74
2023/01/02 01:38:47;;;;;;;21.83;17.47;;;2.50;99.90;;;;;;5053024;28;20779;-74
2023/01/02 01:41:16;;;;;;;24.90;18.73;;;2.60;99.90;;;;;;5056145;28;21005;-74
2023/01/02 01:43:45;;;;;;;26.50;18.97;;;2.70;99.90;;;;;;5065749;28;20526;-74
2023/01/02 01:46:22;;;;;;;34.93;20.90;;;2.60;99.90;;;;;;5060149;28;20487;-74
2023/01/02 01:48:54;;;;;;;33.83;19.07;;;2.60;99.90;;;;;;5046224;28;20858;-74
2023/01/02 01:51:22;;;;;;;34.13;21.23;;;2.60;99.90;;;;;;5053546;28;20782;-74
2023/01/02 01:53:53;;;;;;;132.03;32.90;;;2.60;99.90;;;;;;5061474;28;20522;-74
2023/01/02 01:56:20;;;;;;;84.93;30.03;;;2.50;99.90;;;;;;5067357;28;20447;-75
2023/01/02 01:58:47;;;;;;;160.43;37.50;;;2.50;99.90;;;;;;5065327;28;20455;-74
2023/01/02 02:01:17;;;;;;;162.60;44.20;;;2.50;99.90;;;;;;5064614;28;20596;-74
2023/01/02 02:03:47;;;;;;;166.60;40.27;;;2.40;99.90;;;;;;5061124;28;20456;-74
2023/01/02 02:06:16;;;;;;;30.40;19.40;;;2.40;99.90;;;;;;5051542;28;20451;-74
2023/01/02 02:08:49;;;;;;;22.93;17.20;;;2.60;99.90;;;;;;5058670;28;20541;-74
2023/01/02 02:11:17;;;;;;;27.77;16.27;;;2.60;99.90;;;;;;5066112;28;20448;-74
2023/01/02 02:13:44;;;;;;;89.00;27.33;;;2.50;99.90;;;;;;5058420;28;20453;-74
2023/01/02 02:16:23;;;;;;;21.33;13.77;;;2.50;99.90;;;;;;5050642;28;21003;-74
2023/01/02 02:19:07;;;;;;;21.87;13.83;;;2.50;99.90;;;;;;5052975;28;20448;-74
2023/01/02 02:21:56;;;;;;;16.07;11.27;;;2.50;99.90;;;;;;5047958;28;20444;-74
2023/01/02 02:24:53;;;;;;;17.23;11.00;;;2.50;99.90;;;;;;5048595;28;20522;-74
2023/01/02 02:27:43;;;;;;;12.10;9.60;;;2.50;99.90;;;;;;5046477;28;20436;-74
2023/01/02 02:30:17;;;;;;;55.80;19.43;;;2.30;99.90;;;;;;5050957;28;20487;-74
2023/01/02 02:33:09;;;;;;;12.00;8.40;;;2.20;99.90;;;;;;5064361;28;20838;-74
2023/01/02 02:35:53;;;;;;;13.40;9.00;;;2.20;99.90;;;;;;5051538;28;20437;-74
2023/01/02 02:38:31;;;;;;;11.70;8.50;;;2.10;99.90;;;;;;5050844;28;20440;-74
2023/01/02 02:41:07;;;;;;;11.20;9.87;;;2.10;99.90;;;;;;5047549;28;20525;-74
2023/01/02 02:43:47;;;;;;;16.43;11.00;;;2.10;99.90;;;;;;5058527;28;20525;-74
2023/01/02 02:46:22;;;;;;;10.80;9.17;;;2.10;99.90;;;;;;5065996;28;20614;-74
2023/01/02 02:48:58;;;;;;;13.90;10.60;;;2.00;99.90;;;;;;5063330;28;20631;-74
2023/01/02 02:51:32;;;;;;;16.13;11.70;;;2.00;99.90;;;;;;5050624;28;20819;-74
2023/01/02 02:54:04;;;;;;;25.53;14.27;;;2.00;99.90;;;;;;5057517;28;20465;-74
2023/01/02 02:56:31;;;;;;;13.83;10.60;;;2.00;99.90;;;;;;5057282;28;20452;-74
2023/01/02 02:58:59;;;;;;;20.53;10.23;;;2.00;99.90;;;;;;5064191;28;20520;-74
2023/01/02 03:01:30;;;;;;;23.10;14.00;;;1.90;99.90;;;;;;5058908;28;20491;-74
2023/01/02 03:03:57;;;;;;;190.33;54.40;;;1.70;99.90;;;;;;5057543;28;20518;-74
2023/01/02 03:06:39;;;;;;;46.47;16.90;;;1.70;99.90;;;;;;5054419;28;20516;-74
2023/01/02 03:09:13;;;;;;;90.53;26.70;;;1.60;99.90;;;;;;5064090;28;20510;-74
2023/01/02 03:11:54;;;;;;;95.83;27.27;;;1.60;99.90;;;;;;5047951;28;20467;-74
2023/01/02 03:14:25;;;;;;;117.00;33.97;;;1.60;99.90;;;;;;5065221;28;20934;-74
2023/01/02 03:17:00;;;;;;;29.90;13.07;;;1.70;99.90;;;;;;5054870;28;20448;-74
2023/01/02 03:19:32;;;;;;;11.83;8.03;;;1.80;99.90;;;;;;5057335;28;20464;-75
2023/01/02 03:22:02;;;;;;;11.10;9.57;;;1.80;99.90;;;;;;5054251;28;20464;-74
2023/01/02 03:24:30;;;;;;;11.67;9.00;;;1.90;99.90;;;;;;5064912;28;20454;-74
2023/01/02 03:27:02;;;;;;;13.00;9.80;;;1.90;99.90;;;;;;5062015;28;20520;-74
2023/01/02 03:29:34;;;;;;;15.60;10.70;;;2.00;99.90;;;;;;5054425;28;20495;-74
2023/01/02 03:32:07;;;;;;;12.63;10.80;;;2.00;99.90;;;;;;5062754;28;20455;-74
2023/01/02 03:34:38;;;;;;;16.37;11.20;;;2.10;99.90;;;;;;5061006;28;20448;-74
2023/01/02 03:37:10;;;;;;;59.47;23.63;;;2.00;99.90;;;;;;5061400;28;21356;-74
2023/01/02 03:39:43;;;;;;;50.03;20.33;;;2.20;99.90;;;;;;5053002;28;20522;-74
2023/01/02 03:42:12;;;;;;;69.13;25.83;;;2.10;99.90;;;;;;5054216;28;20463;-74
2023/01/02 03:44:44;;;;;;;100.13;31.40;;;2.20;99.90;;;;;;5057407;28;20447;-74
2023/01/02 03:47:22;;;;;;;124.10;32.07;;;2.10;99.90;;;;;;5061612;28;20594;-74
2023/01/02 03:49:53;;;;;;;70.23;24.73;;;2.00;99.90;;;;;;5054276;28;20784;-74
2023/01/02 03:52:20;;;;;;;77.23;27.60;;;1.90;99.90;;;;;;5052071;28;20757;-74
2023/01/02 03:54:48;;;;;;;65.73;24.50;;;1.80;99.90;;;;;;5051086;28;20524;-74
2023/01/02 03:57:26;;;;;;;84.53;28.10;;;1.70;99.90;;;;;;5062774;28;20448;-74
2023/01/02 04:00:00;;;;;;;64.03;24.17;;;1.70;99.90;;;;;;5061085;28;20520;-74
2023/01/02 04:02:35;;;;;;;63.03;24.73;;;1.60;99.90;;;;;;5060041;28;20462;-74
2023/01/02 04:05:07;;;;;;;52.10;22.70;;;1.50;99.90;;;;;;5052853;28;20452;-74
2023/01/02 04:07:39;;;;;;;98.13;39.07;;;1.50;99.90;;;;;;5054774;28;20462;-74
2023/01/02 04:10:09;;;;;;;85.93;33.93;;;1.60;99.90;;;;;;5058629;28;21038;-74
2023/01/02 04:12:39;;;;;;;39.57;22.30;;;1.60;99.90;;;;;;5060155;28;20512;-74
2023/01/02 04:15:11;;;;;;;90.87;36.17;;;1.60;99.90;;;;;;5063097;28;20976;-74
2023/01/02 04:17:43;;;;;;;65.30;27.07;;;1.50;99.90;;;;;;5064551;28;20530;-74
2023/01/02 04:20:15;;;;;;;73.47;30.13;;;1.50;99.90;;;;;;5046188;28;20525;-74
2023/01/02 04:22:48;;;;;;;110.27;37.90;;;1.40;99.90;;;;;;5055883;28;20980;-74
2023/01/02 04:25:17;;;;;;;39.80;19.23;;;1.40;99.90;;;;;;5052561;28;20456;-74
2023/01/02 04:27:49;;;;;;;117.50;38.60;;;1.40;99.90;;;;;;5048318;28;20444;-74
2023/01/02 04:30:16;;;;;;;75.73;27.60;;;1.20;99.90;;;;;;5061644;28;20396;-74
2023/01/02 04:32:47;;;;;;;65.93;25.57;;;1.20;99.90;;;;;;5060724;28;20585;-74
2023/01/02 04:35:17;;;;;;;119.13;40.33;;;1.20;99.90;;;;;;5048567;28;20627;-74
2023/01/02 04:37:45;;;;;;;70.17;29.60;;;1.30;99.90;;;;;;5048807;28;20500;-74
2023/01/02 04:40:17;;;;;;;101.10;32.13;;;1.20;99.90;;;;;;5050205;28;20444;-74
2023/01/02 04:42:44;;;;;;;99.20;32.17;;;1.20;99.90;;;;;;5057587;28;20509;-76
2023/01/02 04:45:12;;;;;;;97.17;37.80;;;1.10;99.90;;;;;;5063001;28;20823;-76
2023/01/02 04:47:39;;;;;;;93.70;30.57;;;1.10;99.90;;;;;;5065744;28;21012;-74
2023/01/02 04:50:08;;;;;;;94.43;33.87;;;1.20;99.90;;;;;;5064707;28;20497;-73
2023/01/02 04:52:36;;;;;;;103.73;33.70;;;1.20;99.90;;;;;;5057491;28;20799;-73
2023/01/02 04:55:03;;;;;;;64.63;24.77;;;1.20;99.90;;;;;;5049131;28;20506;-76
2023/01/02 04:57:31;;;;;;;72.27;32.70;;;1.10;99.90;;;;;;5064452;28;20496;-76
2023/01/02 04:59:58;;;;;;;47.07;25.13;;;1.10;99.90;;;;;;5059229;28;20902;-75
2023/01/02 05:02:25;;;;;;;57.70;27.00;;;1.10;99.90;;;;;;5063434;28;20647;-75
2023/01/02 05:04:52;;;;;;;47.17;26.07;;;1.10;99.90;;;;;;5066830;28;20450;-75
2023/01/02 05:07:20;;;;;;;42.37;20.60;;;1.10;99.90;;;;;;5063227;28;20526;-75
2023/01/02 05:09:48;;;;;;;46.07;24.17;;;1.20;99.90;;;;;;5064870;28;20486;-75
2023/01/02 05:12:15;;;;;;;53.30;26.77;;;1.20;99.90;;;;;;5055242;28;20471;-75
2023/01/02 05:14:42;;;;;;;61.37;31.53;;;1.20;99.90;;;;;;5058311;28;20466;-75
2023/01/02 05:17:08;;;;;;;62.60;29.60;;;1.20;99.90;;;;;;5066455;28;20459;-75
2023/01/02 05:19:35;;;;;;;51.07;26.37;;;1.30;99.90;;;;;;5053718;28;20459;-75
2023/01/02 05:24:48;;;;;;;80.93;33.10;;;1.40;99.90;;;;;;5054163;28;20519;-75
2023/01/02 05:27:15;;;;;;;94.60;36.83;;;1.50;99.90;;;;;;5066422;28;20450;-75
2023/01/02 05:29:42;;;;;;;94.83;34.77;;;1.60;99.90;;;;;;5066278;28;20490;-75
2023/01/02 05:32:09;;;;;;;151.57;52.03;;;1.70;99.90;;;;;;5054794;28;20468;-75
2023/01/02 05:34:36;;;;;;;212.47;53.13;;;1.70;99.90;;;;;;5064162;28;20448;-75
2023/01/02 05:37:04;;;;;;;176.20;51.60;;;1.80;99.90;;;;;;5064825;28;20950;-75
2023/01/02 05:39:31;;;;;;;166.00;51.97;;;1.80;99.90;;;;;;5056351;28;20452;-75
2023/01/02 05:41:59;;;;;;;67.75;28.50;;;1.90;99.90;;;;;;5060028;28;20787;-75
2023/01/02 05:44:26;;;;;;;63.77;30.67;;;1.80;99.90;;;;;;5061828;28;20198;-75
2023/01/02 05:46:54;;;;;;;123.53;42.33;;;1.80;99.90;;;;;;5047931;28;20472;-75
2023/01/02 05:49:20;;;;;;;92.13;31.33;;;1.90;99.90;;;;;;5067942;28;20500;-75
2023/01/02 05:51:47;;;;;;;132.67;38.73;;;1.90;99.90;;;;;;5053679;28;20797;-75
2023/01/02 05:54:14;;;;;;;131.63;45.90;;;2.00;99.90;;;;;;5064019;28;20540;-75
2023/01/02 05:56:41;;;;;;;200.90;49.60;;;2.10;99.90;;;;;;5067525;28;20932;-75
2023/01/02 05:59:10;;;;;;;175.50;46.60;;;2.00;99.90;;;;;;5058180;28;20646;-75
2023/01/02 06:01:38;;;;;;;126.17;40.77;;;2.00;99.90;;;;;;5062669;28;20856;-75
2023/01/02 06:04:05;;;;;;;169.50;52.93;;;2.00;99.90;;;;;;5060129;28;20563;-75
2023/01/02 06:06:34;;;;;;;141.00;44.17;;;2.00;99.90;;;;;;5052290;28;20464;-75
2023/01/02 06:09:01;;;;;;;82.40;35.53;;;2.10;99.90;;;;;;5055246;28;20513;-75
2023/01/02 06:11:29;;;;;;;117.63;42.40;;;2.10;99.90;;;;;;5061535;28;20512;-75
2023/01/02 06:13:56;;;;;;;82.70;32.60;;;2.10;99.90;;;;;;5064860;28;20454;-75
2023/01/02 06:16:25;;;;;;;75.33;25.37;;;2.20;99.90;;;;;;5065913;28;20528;-75
2023/01/02 06:18:52;;;;;;;115.87;41.47;;;2.10;99.90;;;;;;5066963;28;20893;-75
2023/01/02 06:21:21;;;;;;;98.40;34.90;;;2.10;99.90;;;;;;5066564;28;20440;-75
2023/01/02 06:23:48;;;;;;;76.07;30.57;;;2.20;99.90;;;;;;5056275;28;20579;-75
2023/01/02 06:26:16;;;;;;;93.10;32.90;;;2.20;99.90;;;;;;5053761;28;20519;-75
2023/01/02 06:28:44;;;;;;;126.97;45.80;;;2.30;99.90;;;;;;5053414;28;20930;-75
2023/01/02 06:31:16;;;;;;;94.87;33.63;;;2.30;99.90;;;;;;5049980;28;20503;-75
2023/01/02 06:33:45;;;;;;;86.33;33.50;;;2.30;99.90;;;;;;5057380;28;20448;-75
2023/01/02 06:36:13;;;;;;;130.03;43.17;;;2.30;99.90;;;;;;5056711;28;20522;-75
2023/01/02 06:38:40;;;;;;;108.53;40.63;;;2.30;99.90;;;;;;5050303;28;20587;-75
2023/01/02 06:41:09;;;;;;;158.07;57.47;;;2.20;99.90;;;;;;5051911;28;20503;-75
2023/01/02 06:43:37;;;;;;;164.83;72.20;;;2.30;99.90;;;;;;5057719;28;20464;-75
2023/01/02 06:46:05;;;;;;;123.80;44.43;;;2.30;99.90;;;;;;5053612;28;21001;-75
2023/01/02 06:48:33;;;;;;;76.40;38.60;;;2.40;99.90;;;;;;5055257;28;20979;-75
2023/01/02 06:51:04;;;;;;;92.57;45.63;;;2.40;99.90;;;;;;5052275;28;20588;-75
2023/01/02 06:53:34;;;;;;;159.73;66.70;;;2.30;99.90;;;;;;5061967;28;20472;-75
2023/01/02 06:56:01;;;;;;;229.87;61.03;;;2.30;99.90;;;;;;5056791;28;20451;-75
2023/01/02 06:58:30;;;;;;;134.63;42.30;;;2.40;99.90;;;;;;5056488;28;20465;-75
2023/01/02 07:01:02;;;;;;;160.53;47.93;;;2.40;99.90;;;;;;5049035;28;20501;-75
2023/01/02 07:03:29;;;;;;;65.90;30.00;;;2.40;99.90;;;;;;5057342;28;20773;-75
2023/01/02 07:06:02;;;;;;;166.27;50.27;;;2.40;99.90;;;;;;5055191;28;20460;-75
2023/01/02 07:08:29;;;;;;;117.33;45.83;;;2.40;99.90;;;;;;5046099;28;20452;-75
2023/01/02 07:11:05;;;;;;;101.20;39.90;;;2.50;99.90;;;;;;5048480;28;20583;-76
2023/01/02 07:13:32;;;;;;;96.77;57.93;;;2.60;99.90;;;;;;5056043;28;20553;-75
2023/01/02 07:16:02;;;;;;;72.37;26.73;;;2.70;99.90;;;;;;5054466;28;20562;-75
2023/01/02 07:18:29;;;;;;;115.67;45.00;;;2.60;99.90;;;;;;5047327;28;20460;-75
2023/01/02 07:20:56;;;;;;;122.43;47.57;;;2.60;99.90;;;;;;5048608;28;20470;-75
2023/01/02 07:23:25;;;;;;;108.03;43.70;;;2.70;99.90;;;;;;5046400;28;22234;-75
2023/01/02 07:25:54;;;;;;;98.70;37.80;;;2.80;99.90;;;;;;5046496;28;20553;-75
2023/01/02 07:28:21;;;;;;;203.03;55.40;;;2.90;99.90;;;;;;5047727;28;20498;-75
2023/01/02 07:30:48;;;;;;;213.63;50.10;;;2.90;99.90;;;;;;5057132;28;20548;-75
2023/01/02 07:33:16;;;;;;;258.53;65.63;;;2.90;99.90;;;;;;5048805;28;20513;-75
2023/01/02 07:35:44;;;;;;;163.87;45.83;;;2.90;99.90;;;;;;5052770;28;20447;-75
2023/01/02 07:38:11;;;;;;;196.85;49.95;;;2.80;99.90;;;;;;5047230;28;20521;-74
2023/01/02 07:40:39;;;;;;;224.40;52.93;;;2.80;99.90;;;;;;5055472;28;20299;-75
2023/01/02 07:43:06;;;;;;;154.90;45.73;;;2.90;99.90;;;;;;5054002;28;20467;-74
2023/01/02 07:45:34;;;;;;;212.00;50.33;;;3.00;99.90;;;;;;5047440;28;20449;-74
2023/01/02 07:48:01;;;;;;;96.43;33.53;;;2.90;99.90;;;;;;5044137;28;20962;-74
2023/01/02 07:50:28;;;;;;;163.17;51.97;;;2.90;99.90;;;;;;5046621;28;20516;-74
2023/01/02 07:52:55;;;;;;;107.30;35.73;;;3.00;99.90;;;;;;5047927;28;20519;-75
2023/01/02 07:55:22;;;;;;;91.00;37.47;;;3.00;99.90;;;;;;5051025;28;20468;-75
2023/01/02 07:57:50;;;;;;;113.23;32.17;;;3.00;99.90;;;;;;5045383;28;20558;-75
2023/01/02 08:00:18;;;;;;;62.37;21.50;;;2.90;99.90;;;;;;5053988;28;20510;-75
2023/01/02 08:02:45;;;;;;;83.70;29.63;;;2.90;99.90;;;;;;5046168;28;20990;-74
2023/01/02 08:05:12;;;;;;;95.53;32.23;;;2.90;99.90;;;;;;5056448;28;20456;-75
2023/01/02 08:07:39;;;;;;;104.20;34.53;;;3.10;99.90;;;;;;5048279;28;20449;-75
2023/01/02 08:10:06;;;;;;;78.97;29.63;;;3.20;99.90;;;;;;5050406;28;20565;-75
2023/01/02 08:12:33;;;;;;;128.73;44.67;;;3.20;99.90;;;;;;5051132;28;20693;-74
2023/01/02 08:15:01;;;;;;;60.27;22.53;;;3.20;99.90;;;;;;5053261;28;20479;-74
2023/01/02 08:17:30;;;;;;;83.97;28.70;;;3.20;99.90;;;;;;5045403;28;20461;-75
2023/01/02 08:19:57;;;;;;;296.13;68.00;;;3.20;99.90;;;;;;5054203;28;20534;-74
2023/01/02 08:22:24;;;;;;;189.10;49.07;;;3.30;99.90;;;;;;5053566;28;20448;-74
2023/01/02 08:24:51;;;;;;;99.80;33.67;;;3.40;99.90;;;;;;5047840;28;20492;-75
2023/01/02 08:27:18;;;;;;;144.57;37.83;;;3.50;99.90;;;;;;5043761;28;20511;-74
2023/01/02 08:29:45;;;;;;;132.70;40.47;;;3.40;99.90;;;;;;5051575;28;20452;-74
2023/01/02 08:32:13;;;;;;;220.63;53.22;;;3.40;99.90;;;;;;5043472;28;20460;-74
2023/01/02 08:34:40;;;;;;;108.53;33.40;;;3.60;99.90;;;;;;5045443;28;20199;-74
2023/01/02 08:37:07;;;;;;;212.80;43.00;;;3.50;99.90;;;;;;5045548;28;20537;-74
2023/01/02 08:39:34;;;;;;;88.07;26.73;;;3.40;99.90;;;;;;5045233;28;20531;-75
2023/01/02 08:42:01;;;;;;;198.03;52.20;;;3.40;99.90;;;;;;5047327;28;20542;-75
2023/01/02 08:44:28;;;;;;;174.07;48.13;;;3.40;99.90;;;;;;5051834;28;20514;-74
2023/01/02 08:46:55;;;;;;;149.57;40.60;;;3.60;99.90;;;;;;5046198;28;20780;-75
2023/01/02 08:49:23;;;;;;;140.63;40.40;;;3.60;99.90;;;;;;5054825;28;20464;-75
2023/01/02 08:51:50;;;;;;;113.50;27.77;;;3.70;99.90;;;;;;5058081;28;20584;-75
2023/01/02 08:54:17;;;;;;;192.47;47.43;;;3.60;99.90;;;;;;5046561;28;20570;-74
2023/01/02 08:56:44;;;;;;;113.03;31.07;;;3.60;99.90;;;;;;5046448;28;20981;-75
2023/01/02 08:59:12;;;;;;;100.10;28.73;;;3.70;99.90;;;;;;5045266;28;20503;-74
2023/01/02 09:01:39;;;;;;;419.50;85.37;;;3.60;99.90;;;;;;5048700;28;20488;-74
2023/01/02 09:04:07;;;;;;;210.23;46.00;;;3.70;99.90;;;;;;5054784;28;20532;-74
2023/01/02 09:06:37;;;;;;;187.10;51.77;;;3.80;99.90;;;;;;5050054;28;20472;-74
2023/01/02 09:09:05;;;;;;;191.43;47.63;;;3.80;99.90;;;;;;5055593;28;20457;-74
2023/01/02 09:11:34;;;;;;;251.77;61.60;;;3.80;99.90;;;;;;5057125;28;20519;-75
2023/01/02 09:14:02;;;;;;;207.43;50.83;;;3.90;99.90;;;;;;5053076;28;20667;-74
2023/01/02 09:16:30;;;;;;;449.80;87.47;;;3.90;99.90;;;;;;5050736;28;20448;-74
2023/01/02 09:18:58;;;;;;;405.23;75.13;;;4.00;99.90;;;;;;5049887;28;20237;-74
2023/01/02 09:21:26;;;;;;;246.27;49.97;;;4.00;99.90;;;;;;5058988;28;20271;-74
2023/01/02 09:23:54;;;;;;;363.30;77.03;;;3.90;99.90;;;;;;5057742;28;20834;-74
2023/01/02 09:26:21;;;;;;;377.07;75.10;;;3.90;99.90;;;;;;5048684;28;20469;-74
2023/01/02 09:28:48;;;;;;;196.87;42.23;;;4.00;99.90;;;;;;5057463;28;20453;-74
2023/01/02 09:31:17;;;;;;;88.30;27.63;;;4.00;99.90;;;;;;5050682;28;20524;-74
2023/01/02 09:33:45;;;;;;;105.47;29.67;;;3.80;99.90;;;;;;5060147;28;20456;-74
2023/01/02 09:36:14;;;;;;;166.80;46.23;;;3.90;99.90;;;;;;5050666;28;20460;-74
2023/01/02 09:38:41;;;;;;;53.80;20.27;;;3.80;99.90;;;;;;5055619;28;20857;-75
2023/01/02 09:41:30;;;;;;;94.37;34.77;;;3.90;99.90;;;;;;5054291;28;20479;-74
2023/01/02 09:44:01;;;;;;;57.67;23.80;;;3.70;99.90;;;;;;5055379;28;20802;-74
2023/01/02 09:46:35;;;;;;;56.93;21.70;;;3.80;99.90;;;;;;5051569;28;20569;-74
2023/01/02 09:49:03;;;;;;;110.63;29.20;;;3.80;99.90;;;;;;5050320;28;20513;-74
2023/01/02 09:51:32;;;;;;;94.30;30.07;;;3.90;99.90;;;;;;5054191;28;20573;-75
2023/01/02 09:53:59;;;;;;;58.97;21.83;;;4.20;99.90;;;;;;5055255;28;20460;-74
2023/01/02 09:56:33;;;;;;;107.97;34.57;;;4.20;99.90;;;;;;5052050;28;20463;-74
2023/01/02 09:59:07;;;;;;;80.60;25.33;;;4.10;99.90;;;;;;5053814;28;20611;-74
2023/01/02 10:01:41;;;;;;;127.50;38.60;;;4.10;99.90;;;;;;5058433;28;20967;-75
2023/01/02 10:04:20;;;;;;;92.23;29.23;;;4.10;99.90;;;;;;5052658;28;20460;-74
2023/01/02 10:06:55;;;;;;;58.00;20.07;;;3.90;99.90;;;;;;5047089;28;20858;-74
2023/01/02 10:09:26;;;;;;;83.13;27.23;;;3.90;99.90;;;;;;5052501;28;21142;-74
2023/01/02 10:12:03;;;;;;;94.97;30.87;;;4.00;99.90;;;;;;5060032;28;20746;-74
2023/01/02 10:14:40;;;;;;;69.17;27.47;;;4.00;99.90;;;;;;5065398;28;20464;-74
2023/01/02 10:17:10;;;;;;;137.20;40.10;;;4.20;99.90;;;;;;5051887;28;20467;-74
2023/01/02 10:19:44;;;;;;;90.20;25.38;;;4.20;99.90;;;;;;5048196;28;20589;-74
2023/01/02 10:22:17;;;;;;;48.07;20.77;;;4.10;99.90;;;;;;5047777;28;20239;-74
2023/01/02 10:24:47;;;;;;;107.67;30.33;;;4.00;99.90;;;;;;5055480;28;20771;-75
2023/01/02 10:27:20;;;;;;;82.37;25.77;;;4.10;99.90;;;;;;5046535;28;20480;-75
2023/01/02 10:29:54;;;;;;;144.17;36.70;;;4.40;99.90;;;;;;5046013;28;20664;-75
2023/01/02 10:32:23;;;;;;;102.00;30.43;;;4.60;99.90;;;;;;5052304;28;20488;-75
2023/01/02 10:35:02;;;;;;;172.10;40.23;;;4.60;99.90;;;;;;5049203;28;20960;-76
2023/01/02 10:37:29;;;;;;;126.60;32.23;;;4.70;99.90;;;;;;5052636;28;20491;-76
2023/01/02 10:39:57;;;;;;;212.10;50.43;;;4.70;99.90;;;;;;5048163;28;20523;-81
2023/01/02 10:42:25;;;;;;;130.83;33.00;;;4.80;99.90;;;;;;5060631;28;20896;-77
2023/01/02 10:44:52;;;;;;;87.93;25.83;;;4.70;99.90;;;;;;5051764;28;20471;-77
2023/01/02 10:47:22;;;;;;;199.30;41.67;;;4.60;99.90;;;;;;5051241;28;20468;-77
2023/01/02 10:49:50;;;;;;;131.13;34.63;;;4.70;99.90;;;;;;5051462;28;20467;-77
2023/01/02 10:52:25;;;;;;;80.03;23.27;;;4.60;99.90;;;;;;5059137;28;20491;-75
2023/01/02 10:54:54;;;;;;;187.60;45.33;;;4.60;99.90;;;;;;5049096;28;20459;-75
2023/01/02 10:57:26;;;;;;;262.03;54.57;;;4.70;99.90;;;;;;5051245;28;20497;-75
2023/01/02 10:59:57;;;;;;;131.90;33.13;;;4.80;99.90;;;;;;5049448;28;20464;-75
2023/01/02 11:02:30;;;;;;;207.30;41.88;;;4.70;99.90;;;;;;5048683;28;20460;-75
2023/01/02 11:05:02;;;;;;;152.63;33.57;;;4.70;99.90;;;;;;5052687;28;20293;-75
2023/01/02 11:07:33;;;;;;;171.60;36.37;;;4.70;99.90;;;;;;5057385;28;20466;-75
2023/01/02 11:10:00;;;;;;;250.97;55.37;;;4.50;99.90;;;;;;5047206;28;20496;-75
2023/01/02 11:12:31;;;;;;;76.23;23.57;;;4.50;99.90;;;;;;5053853;28;20580;-74
2023/01/02 11:15:12;;;;;;;145.57;37.13;;;4.60;99.90;;;;;;5063353;28;20559;-75
2023/01/02 11:17:44;;;;;;;264.50;55.17;;;4.80;99.90;;;;;;5056137;28;20468;-75
2023/01/02 11:20:27;;;;;;;58.47;20.60;;;4.60;99.90;;;;;;5057903;28;20529;-74
2023/01/02 11:22:56;;;;;;;265.42;55.80;;;4.90;99.90;;;;;;5063054;28;20876;-77
2023/01/02 11:25:25;;;;;;;106.30;28.77;;;5.10;99.90;;;;;;5060431;28;20198;-77
2023/01/02 11:27:58;;;;;;;227.90;55.23;;;5.00;99.90;;;;;;5058962;28;21025;-77
2023/01/02 11:30:35;;;;;;;84.03;24.57;;;5.20;99.90;;;;;;5051250;28;21168;-77
2023/01/02 11:33:06;;;;;;;38.47;17.43;;;5.10;99.90;;;;;;5047477;28;20939;-76
2023/01/02 11:35:38;;;;;;;49.63;18.03;;;5.20;99.90;;;;;;5054878;28;20459;-77
2023/01/02 11:38:12;;;;;;;80.23;21.33;;;5.30;99.90;;;;;;5043232;28;20553;-75
2023/01/02 11:40:52;;;;;;;44.87;19.73;;;5.00;99.90;;;;;;5052700;28;20554;-77
2023/01/02 11:46:19;;;;;;;150.43;33.70;;;5.00;99.90;;;;;;5057569;28;20443;-76
2023/01/02 11:48:47;;;;;;;47.63;21.63;;;5.10;99.90;;;;;;5050746;28;20472;-77
2023/01/02 11:51:16;;;;;;;43.80;15.57;;;5.20;99.90;;;;;;5059554;28;20490;-77
2023/01/02 11:53:46;;;;;;;45.87;15.47;;;5.10;99.90;;;;;;5057112;28;20461;-75
2023/01/02 11:56:17;;;;;;;27.10;11.33;;;5.10;99.90;;;;;;5052726;28;20981;-76
2023/01/02 11:58:51;;;;;;;38.70;15.70;;;5.10;99.90;;;;;;5046933;28;20468;-76
2023/01/02 12:01:24;;;;;;;63.60;20.50;;;5.30;99.90;;;;;;5048163;28;20566;-76
2023/01/02 12:03:52;;;;;;;72.30;23.37;;;5.30;99.90;;;;;;5062512;28;20492;-75
2023/01/02 12:06:21;;;;;;;87.10;21.93;;;5.10;99.90;;;;;;5054536;28;21034;-75
2023/01/02 12:43:42;;;;;;;100.63;30.70;;;4.70;99.90;;;;;;5073110;27;20990;-74
2023/01/02 12:46:21;;;;;;;82.63;23.33;;;4.60;99.90;;;;;;5051675;28;20534;-74
2023/01/02 12:49:15;;;;;;;40.30;16.50;;;4.60;99.90;;;;;;5060223;28;20548;-74
2023/01/02 12:51:52;;;;;;;95.57;24.75;;;4.70;99.90;;;;;;5056767;28;20952;-74
2023/01/02 12:54:42;;;;;;;44.93;14.67;;;4.60;99.90;;;;;;5057056;28;20236;-74
2023/01/02 12:57:16;;;;;;;117.13;26.27;;;4.60;99.90;;;;;;5053199;28;20506;-73
2023/01/02 13:00:15;;;;;;;65.67;17.23;;;4.80;99.90;;;;;;5062871;28;20576;-74
2023/01/02 13:02:59;;;;;;;63.77;21.23;;;4.60;99.90;;;;;;5064698;28;20488;-76
2023/01/02 13:05:32;;;;;;;64.18;19.65;;;4.60;99.90;;;;;;5056385;28;20483;-74
2023/01/02 13:08:05;;;;;;;93.40;26.20;;;4.60;99.90;;;;;;5053356;28;20221;-76
2023/01/02 13:10:33;;;;;;;62.73;20.70;;;4.70;99.90;;;;;;5060890;28;20505;-77
2023/01/02 13:13:01;;;;;;;40.07;13.60;;;4.70;99.90;;;;;;5061071;28;20468;-76
2023/01/02 13:15:34;;;;;;;89.93;23.80;;;4.70;99.90;;;;;;5053984;28;20464;-75
2023/01/02 13:18:07;;;;;;;61.03;18.70;;;4.70;99.90;;;;;;5054113;28;20464;-77
2023/01/02 13:20:44;;;;;;;63.10;17.77;;;4.80;99.90;;;;;;5051802;28;20479;-76
2023/01/02 13:23:27;;;;;;;59.53;18.90;;;4.90;99.90;;;;;;5057772;28;20275;-76
2023/01/02 13:25:58;;;;;;;23.40;15.43;;;4.90;99.90;;;;;;5055144;28;20198;-76
2023/01/02 13:28:25;;;;;;;18.90;10.23;;;4.90;99.90;;;;;;5058104;28;20510;-76